sensor_id;sensor_type;location;lat;lon;timestamp;pressure;altitude;pressure_sealevel;temperature;humidity
68628;BME280;55611;48.602;9.490;2022-08-01T00:00:38;96970;;;25.7;55.5
68628;BME280;55611;48.602;9.490;2022-08-01T00:03:09;96970;;;25.6;55.5
68628;BME280;55611;48.602;9.490;2022-08-01T00:05:39;96970;;;25.7;55.5
68628;BME280;55611;48.602;9.490;2022-08-01T00:08:10;96960;;;25.6;55.5
68628;BME280;55611;48.602;9.490;2022-08-01T00:10:40;96960;;;25.6;55.5
68628;BME280;55611;48.602;9.490;2022-08-01T00:13:11;96970;;;25.5;55.5
68628;BME280;55611;48.602;9.490;2022-08-01T00:15:41;96960;;;25.6;55.5
68628;BME280;55611;48.602;9.490;2022-08-01T00:18:12;96960;;;25.5;55.5
68628;BME280;55611;48.602;9.490;2022-08-01T00:20:42;96960;;;25.6;55.5
68628;BME280;55611;48.602;9.490;2022-08-01T00:23:13;96970;;;25.6;55.5
68628;BME280;55611;48.602;9.490;2022-08-01T00:25:43;96960;;;25.5;55.5
68628;BME280;55611;48.602;9.490;2022-08-01T00:28:14;96960;;;25.5;55.5
68628;BME280;55611;48.602;9.490;2022-08-01T00:30:44;96970;;;25.5;55.5
68628;BME280;55611;48.602;9.490;2022-08-01T00:33:15;96970;;;25.5;55.5
68628;BME280;55611;48.602;9.490;2022-08-01T00:35:45;96970;;;25.5;55.5
68628;BME280;55611;48.602;9.490;2022-08-01T00:38:16;96970;;;25.4;55.5
68628;BME280;55611;48.602;9.490;2022-08-01T00:40:46;96970;;;25.3;55.5
68628;BME280;55611;48.602;9.490;2022-08-01T00:43:17;96970;;;25.3;55.5
68628;BME280;55611;48.602;9.490;2022-08-01T00:45:48;96970;;;25.2;55.5
68628;BME280;55611;48.602;9.490;2022-08-01T00:48:18;96970;;;25.3;55.5
68628;BME280;55611;48.602;9.490;2022-08-01T00:50:48;96970;;;25.3;55.5
68628;BME280;55611;48.602;9.490;2022-08-01T00:53:19;96980;;;25.3;55.5
68628;BME280;55611;48.602;9.490;2022-08-01T00:55:49;96980;;;25.2;55.5
68628;BME280;55611;48.602;9.490;2022-08-01T00:58:20;96980;;;25.2;55.5
68628;BME280;55611;48.602;9.490;2022-08-01T01:00:51;96980;;;25.2;55.5
68628;BME280;55611;48.602;9.490;2022-08-01T01:03:22;96980;;;25.2;55.5
68628;BME280;55611;48.602;9.490;2022-08-01T01:06:25;96980;;;25.2;55.5
68628;BME280;55611;48.602;9.490;2022-08-01T01:08:24;96980;;;25.2;55.5
68628;BME280;55611;48.602;9.490;2022-08-01T01:10:55;96970;;;25.1;55.5
68628;BME280;55611;48.602;9.490;2022-08-01T01:13:30;96980;;;25.1;55.5
68628;BME280;55611;48.602;9.490;2022-08-01T01:15:55;96980;;;25.1;55.5
68628;BME280;55611;48.602;9.490;2022-08-01T01:18:56;96980;;;25.1;55.5
68628;BME280;55611;48.602;9.490;2022-08-01T01:20:58;96980;;;25.2;55.5
68628;BME280;55611;48.602;9.490;2022-08-01T01:23:34;96980;;;25.2;55.5
68628;BME280;55611;48.602;9.490;2022-08-01T01:26:17;96980;;;25.2;55.5
68628;BME280;55611;48.602;9.490;2022-08-01T01:28:33;96980;;;25.2;55.5
68628;BME280;55611;48.602;9.490;2022-08-01T01:30:57;96980;;;25.1;55.5
68628;BME280;55611;48.602;9.490;2022-08-01T01:33:27;96980;;;25;55.5
68628;BME280;55611;48.602;9.490;2022-08-01T01:36:00;96990;;;25;55.5
68628;BME280;55611;48.602;9.490;2022-08-01T01:38:29;96980;;;25;55.5
68628;BME280;55611;48.602;9.490;2022-08-01T01:40:59;96990;;;25;55.5
68628;BME280;55611;48.602;9.490;2022-08-01T01:46:00;96990;;;24.9;55.5
68628;BME280;55611;48.602;9.490;2022-08-01T01:48:30;96990;;;24.8;55.5
68628;BME280;55611;48.602;9.490;2022-08-01T01:51:01;96990;;;24.8;55.5
68628;BME280;55611;48.602;9.490;2022-08-01T01:53:32;96990;;;24.8;55.5
68628;BME280;55611;48.602;9.490;2022-08-01T01:56:02;96990;;;24.8;55.5
68628;BME280;55611;48.602;9.490;2022-08-01T01:58:33;96990;;;24.7;55.5
68628;BME280;55611;48.602;9.490;2022-08-01T02:01:03;96990;;;24.7;55.5
68628;BME280;55611;48.602;9.490;2022-08-01T02:03:34;96990;;;24.6;55.5
68628;BME280;55611;48.602;9.490;2022-08-01T02:06:04;96990;;;24.6;55.5
68628;BME280;55611;48.602;9.490;2022-08-01T02:08:35;96990;;;24.6;55.5
68628;BME280;55611;48.602;9.490;2022-08-01T02:11:05;97000;;;24.6;55.5
68628;BME280;55611;48.602;9.490;2022-08-01T02:13:36;97000;;;24.6;55.5
68628;BME280;55611;48.602;9.490;2022-08-01T02:16:06;97000;;;24.5;55.5
68628;BME280;55611;48.602;9.490;2022-08-01T02:18:37;97000;;;24.4;55.5
68628;BME280;55611;48.602;9.490;2022-08-01T02:21:08;97000;;;24.4;55.5
68628;BME280;55611;48.602;9.490;2022-08-01T02:23:38;97000;;;24.4;55.5
68628;BME280;55611;48.602;9.490;2022-08-01T02:26:09;97000;;;24.4;55.5
68628;BME280;55611;48.602;9.490;2022-08-01T02:28:41;97000;;;24.3;55.5
68628;BME280;55611;48.602;9.490;2022-08-01T02:31:11;97000;;;24.3;55.5
68628;BME280;55611;48.602;9.490;2022-08-01T02:33:41;97010;;;24.3;55.5
68628;BME280;55611;48.602;9.490;2022-08-01T02:36:10;97000;;;24.2;55.5
68628;BME280;55611;48.602;9.490;2022-08-01T02:38:42;97010;;;24.2;55.5
68628;BME280;55611;48.602;9.490;2022-08-01T02:41:12;97000;;;24.2;55.5
68628;BME280;55611;48.602;9.490;2022-08-01T02:43:43;97000;;;24.2;55.5
68628;BME280;55611;48.602;9.490;2022-08-01T02:46:20;97000;;;24.1;55.5
68628;BME280;55611;48.602;9.490;2022-08-01T02:48:43;97000;;;24.1;55.5
68628;BME280;55611;48.602;9.490;2022-08-01T02:51:13;97000;;;24;55.5
68628;BME280;55611;48.602;9.490;2022-08-01T02:53:44;97000;;;24;55.5
68628;BME280;55611;48.602;9.490;2022-08-01T02:56:14;97000;;;24;55.5
68628;BME280;55611;48.602;9.490;2022-08-01T02:58:45;97000;;;23.9;55.5
68628;BME280;55611;48.602;9.490;2022-08-01T03:01:15;97000;;;23.9;55.5
68628;BME280;55611;48.602;9.490;2022-08-01T03:03:46;97000;;;23.8;55.5
68628;BME280;55611;48.602;9.490;2022-08-01T03:06:16;97000;;;23.8;55.5
68628;BME280;55611;48.602;9.490;2022-08-01T03:08:47;97000;;;23.8;55.5
68628;BME280;55611;48.602;9.490;2022-08-01T03:11:17;96990;;;23.7;55.5
68628;BME280;55611;48.602;9.490;2022-08-01T03:13:48;97000;;;23.8;56
68628;BME280;55611;48.602;9.490;2022-08-01T03:16:18;97000;;;23.8;56
68628;BME280;55611;48.602;9.490;2022-08-01T03:18:49;97000;;;23.8;55.5
68628;BME280;55611;48.602;9.490;2022-08-01T03:21:20;97000;;;23.8;55.5
68628;BME280;55611;48.602;9.490;2022-08-01T03:23:50;97000;;;23.7;55.5
68628;BME280;55611;48.602;9.490;2022-08-01T03:26:21;97000;;;23.7;55.5
68628;BME280;55611;48.602;9.490;2022-08-01T03:28:51;97000;;;23.6;55.5
68628;BME280;55611;48.602;9.490;2022-08-01T03:31:22;97000;;;23.7;55.5
68628;BME280;55611;48.602;9.490;2022-08-01T03:33:52;97010;;;23.6;56
68628;BME280;55611;48.602;9.490;2022-08-01T03:36:24;97000;;;23.6;56
68628;BME280;55611;48.602;9.490;2022-08-01T03:38:54;97010;;;23.6;56
68628;BME280;55611;48.602;9.490;2022-08-01T03:41:25;97010;;;23.6;56
68628;BME280;55611;48.602;9.490;2022-08-01T03:43:55;97010;;;23.7;56
68628;BME280;55611;48.602;9.490;2022-08-01T03:46:27;97010;;;23.6;56
68628;BME280;55611;48.602;9.490;2022-08-01T03:48:55;97020;;;23.7;56
68628;BME280;55611;48.602;9.490;2022-08-01T03:51:26;97020;;;23.6;56
68628;BME280;55611;48.602;9.490;2022-08-01T03:53:56;97020;;;23.6;56
68628;BME280;55611;48.602;9.490;2022-08-01T03:56:27;97020;;;23.6;56
68628;BME280;55611;48.602;9.490;2022-08-01T03:58:58;97020;;;23.6;56
68628;BME280;55611;48.602;9.490;2022-08-01T04:01:28;97010;;;23.6;56
68628;BME280;55611;48.602;9.490;2022-08-01T04:03:59;97020;;;23.5;56
68628;BME280;55611;48.602;9.490;2022-08-01T04:06:29;97010;;;23.5;56
68628;BME280;55611;48.602;9.490;2022-08-01T04:08:59;97010;;;23.6;56
68628;BME280;55611;48.602;9.490;2022-08-01T04:11:30;97010;;;23.6;56
68628;BME280;55611;48.602;9.490;2022-08-01T04:14:00;97010;;;23.6;56
68628;BME280;55611;48.602;9.490;2022-08-01T04:16:31;97010;;;23.6;56
68628;BME280;55611;48.602;9.490;2022-08-01T04:19:01;97020;;;23.6;56
68628;BME280;55611;48.602;9.490;2022-08-01T04:21:32;97020;;;23.7;56
68628;BME280;55611;48.602;9.490;2022-08-01T04:24:04;97020;;;23.7;56
68628;BME280;55611;48.602;9.490;2022-08-01T04:26:33;97030;;;23.7;55.5
68628;BME280;55611;48.602;9.490;2022-08-01T04:29:03;97030;;;23.7;55.5
68628;BME280;55611;48.602;9.490;2022-08-01T04:31:34;97030;;;23.7;55.5
68628;BME280;55611;48.602;9.490;2022-08-01T04:34:05;97030;;;23.7;55.5
68628;BME280;55611;48.602;9.490;2022-08-01T04:36:35;97030;;;23.7;55.5
68628;BME280;55611;48.602;9.490;2022-08-01T04:39:05;97030;;;23.7;55.5
68628;BME280;55611;48.602;9.490;2022-08-01T04:41:36;97030;;;23.6;56
68628;BME280;55611;48.602;9.490;2022-08-01T04:44:06;97030;;;23.6;56
68628;BME280;55611;48.602;9.490;2022-08-01T04:46:37;97040;;;23.6;55.5
68628;BME280;55611;48.602;9.490;2022-08-01T04:49:07;97040;;;23.6;56
68628;BME280;55611;48.602;9.490;2022-08-01T04:51:49;97040;;;23.6;56
68628;BME280;55611;48.602;9.490;2022-08-01T04:54:08;97040;;;23.5;55.5
68628;BME280;55611;48.602;9.490;2022-08-01T04:56:39;97040;;;23.5;55.5
68628;BME280;55611;48.602;9.490;2022-08-01T04:59:09;97040;;;23.5;56
68628;BME280;55611;48.602;9.490;2022-08-01T05:01:40;97050;;;23.5;56
68628;BME280;55611;48.602;9.490;2022-08-01T05:04:11;97050;;;23.4;56
68628;BME280;55611;48.602;9.490;2022-08-01T05:06:41;97050;;;23.4;56
68628;BME280;55611;48.602;9.490;2022-08-01T05:09:12;97040;;;23.4;56
68628;BME280;55611;48.602;9.490;2022-08-01T05:11:42;97040;;;23.4;56
68628;BME280;55611;48.602;9.490;2022-08-01T05:14:13;97040;;;23.4;56
68628;BME280;55611;48.602;9.490;2022-08-01T05:16:44;97040;;;23.4;56
68628;BME280;55611;48.602;9.490;2022-08-01T05:19:14;97040;;;23.4;56
68628;BME280;55611;48.602;9.490;2022-08-01T05:21:44;97040;;;23.4;56
68628;BME280;55611;48.602;9.490;2022-08-01T05:24:15;97040;;;23.4;56
68628;BME280;55611;48.602;9.490;2022-08-01T05:26:45;97040;;;23.4;56
68628;BME280;55611;48.602;9.490;2022-08-01T05:29:16;97040;;;23.5;56
68628;BME280;55611;48.602;9.490;2022-08-01T05:31:46;97040;;;23.4;56
68628;BME280;55611;48.602;9.490;2022-08-01T05:34:17;97040;;;23.5;56
68628;BME280;55611;48.602;9.490;2022-08-01T05:36:47;97040;;;23.5;56
68628;BME280;55611;48.602;9.490;2022-08-01T05:39:18;97040;;;23.6;56
68628;BME280;55611;48.602;9.490;2022-08-01T05:41:48;97040;;;23.7;56
68628;BME280;55611;48.602;9.490;2022-08-01T05:44:19;97040;;;23.8;56
68628;BME280;55611;48.602;9.490;2022-08-01T05:46:49;97030;;;23.9;55.5
68628;BME280;55611;48.602;9.490;2022-08-01T05:49:20;97030;;;24;55.5
68628;BME280;55611;48.602;9.490;2022-08-01T05:51:50;97030;;;24;55.5
68628;BME280;55611;48.602;9.490;2022-08-01T05:54:21;97030;;;24.1;55.5
68628;BME280;55611;48.602;9.490;2022-08-01T05:56:52;97030;;;24.2;55.5
68628;BME280;55611;48.602;9.490;2022-08-01T05:59:22;97030;;;24.2;55.5
68628;BME280;55611;48.602;9.490;2022-08-01T06:01:53;97030;;;24.3;55.5
68628;BME280;55611;48.602;9.490;2022-08-01T06:04:23;97030;;;24.4;55.5
68628;BME280;55611;48.602;9.490;2022-08-01T06:06:54;97030;;;24.6;55.5
68628;BME280;55611;48.602;9.490;2022-08-01T06:09:24;97030;;;24.8;55.5
68628;BME280;55611;48.602;9.490;2022-08-01T06:11:54;97020;;;25;55.5
68628;BME280;55611;48.602;9.490;2022-08-01T06:14:25;97030;;;25.2;55.5
68628;BME280;55611;48.602;9.490;2022-08-01T06:16:55;97030;;;25.3;55.5
68628;BME280;55611;48.602;9.490;2022-08-01T06:19:26;97030;;;25.4;55
68628;BME280;55611;48.602;9.490;2022-08-01T06:21:57;97030;;;25.4;55.5
68628;BME280;55611;48.602;9.490;2022-08-01T06:24:27;97030;;;25.5;55
68628;BME280;55611;48.602;9.490;2022-08-01T06:26:58;97030;;;25.6;55
68628;BME280;55611;48.602;9.490;2022-08-01T06:29:29;97040;;;25.8;55
68628;BME280;55611;48.602;9.490;2022-08-01T06:31:59;97030;;;25.9;55
68628;BME280;55611;48.602;9.490;2022-08-01T06:34:29;97040;;;25.9;55
68628;BME280;55611;48.602;9.490;2022-08-01T06:37:00;97040;;;26;55
68628;BME280;55611;48.602;9.490;2022-08-01T06:39:30;97040;;;25.9;55
68628;BME280;55611;48.602;9.490;2022-08-01T06:42:01;97040;;;25.9;55
68628;BME280;55611;48.602;9.490;2022-08-01T06:44:31;97040;;;26;55
68628;BME280;55611;48.602;9.490;2022-08-01T06:47:02;97040;;;26;55
68628;BME280;55611;48.602;9.490;2022-08-01T06:49:32;97050;;;26.1;55
68628;BME280;55611;48.602;9.490;2022-08-01T06:54:33;97050;;;26.4;55
68628;BME280;55611;48.602;9.490;2022-08-01T06:57:04;97040;;;26.5;54.5
68628;BME280;55611;48.602;9.490;2022-08-01T06:59:34;97040;;;26.5;54.5
68628;BME280;55611;48.602;9.490;2022-08-01T07:02:05;97040;;;26.4;54.5
68628;BME280;55611;48.602;9.490;2022-08-01T07:04:35;97040;;;26.5;54.5
68628;BME280;55611;48.602;9.490;2022-08-01T07:07:06;97040;;;26.6;54.5
68628;BME280;55611;48.602;9.490;2022-08-01T07:09:36;97040;;;26.5;54.5
68628;BME280;55611;48.602;9.490;2022-08-01T07:12:07;97040;;;26.5;54.5
68628;BME280;55611;48.602;9.490;2022-08-01T07:14:37;97040;;;26.4;54.5
68628;BME280;55611;48.602;9.490;2022-08-01T07:17:08;97040;;;26.4;54.5
68628;BME280;55611;48.602;9.490;2022-08-01T07:19:38;97050;;;26.4;54.5
68628;BME280;55611;48.602;9.490;2022-08-01T07:22:09;97050;;;26.3;54.5
68628;BME280;55611;48.602;9.490;2022-08-01T07:24:39;97050;;;26.1;54.5
68628;BME280;55611;48.602;9.490;2022-08-01T07:27:10;97040;;;26.1;54.5
68628;BME280;55611;48.602;9.490;2022-08-01T07:29:41;97050;;;26.1;54.5
68628;BME280;55611;48.602;9.490;2022-08-01T07:32:11;97050;;;26.3;54.5
68628;BME280;55611;48.602;9.490;2022-08-01T07:34:42;97040;;;26.3;54.5
68628;BME280;55611;48.602;9.490;2022-08-01T07:37:12;97050;;;26.4;54.5
68628;BME280;55611;48.602;9.490;2022-08-01T07:39:43;97040;;;26.4;54.5
68628;BME280;55611;48.602;9.490;2022-08-01T07:42:13;97040;;;26.5;54.5
68628;BME280;55611;48.602;9.490;2022-08-01T07:44:44;97040;;;26.5;54.5
68628;BME280;55611;48.602;9.490;2022-08-01T07:47:14;97040;;;26.5;54.5
68628;BME280;55611;48.602;9.490;2022-08-01T07:49:45;97040;;;26.5;54.5
68628;BME280;55611;48.602;9.490;2022-08-01T07:52:15;97040;;;26.6;54.5
68628;BME280;55611;48.602;9.490;2022-08-01T07:54:46;97050;;;26.6;54.5
68628;BME280;55611;48.602;9.490;2022-08-01T07:57:16;97050;;;26.8;54.5
68628;BME280;55611;48.602;9.490;2022-08-01T07:59:47;97050;;;26.8;54.5
68628;BME280;55611;48.602;9.490;2022-08-01T08:02:17;97050;;;26.8;54.5
68628;BME280;55611;48.602;9.490;2022-08-01T08:04:48;97050;;;27;54
68628;BME280;55611;48.602;9.490;2022-08-01T08:07:18;97050;;;26.9;54
68628;BME280;55611;48.602;9.490;2022-08-01T08:09:49;97050;;;26.9;54
68628;BME280;55611;48.602;9.490;2022-08-01T08:12:19;97050;;;27;54
68628;BME280;55611;48.602;9.490;2022-08-01T08:14:50;97050;;;26.9;54
68628;BME280;55611;48.602;9.490;2022-08-01T08:17:20;97040;;;27;54
68628;BME280;55611;48.602;9.490;2022-08-01T08:19:51;97040;;;27.1;54
68628;BME280;55611;48.602;9.490;2022-08-01T08:22:21;97040;;;27.1;54.5
68628;BME280;55611;48.602;9.490;2022-08-01T08:24:52;97050;;;27.1;54
68628;BME280;55611;48.602;9.490;2022-08-01T08:27:22;97050;;;27.3;54
68628;BME280;55611;48.602;9.490;2022-08-01T08:29:53;97050;;;27.4;54
68628;BME280;55611;48.602;9.490;2022-08-01T08:32:23;97050;;;27.4;54
68628;BME280;55611;48.602;9.490;2022-08-01T08:34:54;97050;;;27.5;54
68628;BME280;55611;48.602;9.490;2022-08-01T08:37:24;97050;;;27.4;54
68628;BME280;55611;48.602;9.490;2022-08-01T08:39:55;97050;;;27.4;54
68628;BME280;55611;48.602;9.490;2022-08-01T08:42:26;97050;;;27.3;54
68628;BME280;55611;48.602;9.490;2022-08-01T08:44:56;97040;;;27.5;54
68628;BME280;55611;48.602;9.490;2022-08-01T08:47:26;97040;;;27.6;54
68628;BME280;55611;48.602;9.490;2022-08-01T08:49:57;97040;;;27.7;54
68628;BME280;55611;48.602;9.490;2022-08-01T08:52:27;97050;;;27.6;54
68628;BME280;55611;48.602;9.490;2022-08-01T08:54:58;97040;;;27.6;54
68628;BME280;55611;48.602;9.490;2022-08-01T08:57:28;97040;;;27.6;54
68628;BME280;55611;48.602;9.490;2022-08-01T08:59:59;97040;;;27.6;54
68628;BME280;55611;48.602;9.490;2022-08-01T09:02:29;97040;;;27.7;54
68628;BME280;55611;48.602;9.490;2022-08-01T09:05:00;97040;;;27.7;54
68628;BME280;55611;48.602;9.490;2022-08-01T09:07:31;97040;;;27.8;54
68628;BME280;55611;48.602;9.490;2022-08-01T09:10:02;97040;;;27.8;53.5
68628;BME280;55611;48.602;9.490;2022-08-01T09:12:32;97040;;;27.6;53.5
68628;BME280;55611;48.602;9.490;2022-08-01T09:15:02;97040;;;27.5;54
68628;BME280;55611;48.602;9.490;2022-08-01T09:17:40;97040;;;27.5;54
68628;BME280;55611;48.602;9.490;2022-08-01T09:20:03;97040;;;27.8;54
68628;BME280;55611;48.602;9.490;2022-08-01T09:22:34;97030;;;27.9;54
68628;BME280;55611;48.602;9.490;2022-08-01T09:25:05;97040;;;28.1;54
68628;BME280;55611;48.602;9.490;2022-08-01T09:27:36;97030;;;28.4;54
68628;BME280;55611;48.602;9.490;2022-08-01T09:30:10;97040;;;28.6;53.5
68628;BME280;55611;48.602;9.490;2022-08-01T09:32:36;97040;;;28.6;53.5
68628;BME280;55611;48.602;9.490;2022-08-01T09:35:22;97040;;;28.7;53.5
68628;BME280;55611;48.602;9.490;2022-08-01T09:37:37;97050;;;28.6;53.5
68628;BME280;55611;48.602;9.490;2022-08-01T09:40:07;97040;;;28.5;53.5
68628;BME280;55611;48.602;9.490;2022-08-01T09:42:38;97040;;;28.5;53.5
68628;BME280;55611;48.602;9.490;2022-08-01T09:45:08;97040;;;28.5;53.5
68628;BME280;55611;48.602;9.490;2022-08-01T09:47:39;97040;;;28.6;53.5
68628;BME280;55611;48.602;9.490;2022-08-01T09:50:09;97040;;;28.7;53.5
68628;BME280;55611;48.602;9.490;2022-08-01T09:52:40;97030;;;28.4;53.5
68628;BME280;55611;48.602;9.490;2022-08-01T09:55:10;97030;;;28.4;53.5
68628;BME280;55611;48.602;9.490;2022-08-01T09:57:41;97030;;;28.5;53.5
68628;BME280;55611;48.602;9.490;2022-08-01T10:00:17;97030;;;28.7;53.5
68628;BME280;55611;48.602;9.490;2022-08-01T10:02:42;97030;;;28.7;53.5
68628;BME280;55611;48.602;9.490;2022-08-01T10:05:12;97030;;;28.9;53.5
68628;BME280;55611;48.602;9.490;2022-08-01T10:07:59;97020;;;29.1;53.5
68628;BME280;55611;48.602;9.490;2022-08-01T10:10:14;97020;;;29.4;53.5
68628;BME280;55611;48.602;9.490;2022-08-01T10:12:44;97020;;;29.5;53
68628;BME280;55611;48.602;9.490;2022-08-01T10:15:15;97010;;;29.5;53
68628;BME280;55611;48.602;9.490;2022-08-01T10:17:47;97010;;;29.4;53
68628;BME280;55611;48.602;9.490;2022-08-01T10:20:16;97010;;;29.5;53
68628;BME280;55611;48.602;9.490;2022-08-01T10:22:46;97000;;;29.5;53
68628;BME280;55611;48.602;9.490;2022-08-01T10:25:17;97000;;;29.4;53
68628;BME280;55611;48.602;9.490;2022-08-01T10:27:48;97000;;;29.4;53
68628;BME280;55611;48.602;9.490;2022-08-01T10:30:18;96990;;;29.4;53
68628;BME280;55611;48.602;9.490;2022-08-01T10:32:49;96990;;;29.3;53
68628;BME280;55611;48.602;9.490;2022-08-01T10:35:19;96990;;;29.2;53
68628;BME280;55611;48.602;9.490;2022-08-01T10:37:49;96990;;;29.1;53
68628;BME280;55611;48.602;9.490;2022-08-01T10:40:20;96990;;;29.1;53
68628;BME280;55611;48.602;9.490;2022-08-01T10:42:50;96990;;;29;53
68628;BME280;55611;48.602;9.490;2022-08-01T10:45:21;96980;;;28.7;53
68628;BME280;55611;48.602;9.490;2022-08-01T10:47:57;96990;;;28.6;53
68628;BME280;55611;48.602;9.490;2022-08-01T10:50:25;96980;;;28.5;53
68628;BME280;55611;48.602;9.490;2022-08-01T10:53:09;96980;;;28.5;53
68628;BME280;55611;48.602;9.490;2022-08-01T10:55:23;96990;;;28.4;53
68628;BME280;55611;48.602;9.490;2022-08-01T10:57:53;96990;;;28.4;53
68628;BME280;55611;48.602;9.490;2022-08-01T11:00:24;96990;;;28.4;53.5
68628;BME280;55611;48.602;9.490;2022-08-01T11:02:56;96990;;;28.7;53.5
68628;BME280;55611;48.602;9.490;2022-08-01T11:05:25;96990;;;28.9;53.5
68628;BME280;55611;48.602;9.490;2022-08-01T11:07:55;96990;;;28.9;53
68628;BME280;55611;48.602;9.490;2022-08-01T11:10:30;96990;;;29;53
68628;BME280;55611;48.602;9.490;2022-08-01T11:12:56;96980;;;29.1;53
68628;BME280;55611;48.602;9.490;2022-08-01T11:15:27;96980;;;29;53
68628;BME280;55611;48.602;9.490;2022-08-01T11:17:59;96980;;;28.9;53
68628;BME280;55611;48.602;9.490;2022-08-01T11:20:29;96980;;;29.1;53
68628;BME280;55611;48.602;9.490;2022-08-01T11:28:17;96970;;;29.5;52.5
68628;BME280;55611;48.602;9.490;2022-08-01T11:30:30;96960;;;29.6;52.5
68628;BME280;55611;48.602;9.490;2022-08-01T11:33:00;96960;;;29.6;52.5
68628;BME280;55611;48.602;9.490;2022-08-01T11:35:31;96970;;;29.5;52.5
68628;BME280;55611;48.602;9.490;2022-08-01T11:38:21;96970;;;29.3;52.5
68628;BME280;55611;48.602;9.490;2022-08-01T11:40:32;96970;;;29.2;52.5
68628;BME280;55611;48.602;9.490;2022-08-01T11:43:18;96970;;;29.2;52.5
68628;BME280;55611;48.602;9.490;2022-08-01T11:45:49;96970;;;29.1;53
68628;BME280;55611;48.602;9.490;2022-08-01T11:48:04;96970;;;29;52.5
68628;BME280;55611;48.602;9.490;2022-08-01T11:50:35;96970;;;28.9;52.5
68628;BME280;55611;48.602;9.490;2022-08-01T11:53:05;96970;;;28.8;52.5
68628;BME280;55611;48.602;9.490;2022-08-01T11:55:35;96970;;;28.7;53
68628;BME280;55611;48.602;9.490;2022-08-01T11:58:06;96970;;;28.6;53
68628;BME280;55611;48.602;9.490;2022-08-01T12:00:36;96980;;;28.4;53
68628;BME280;55611;48.602;9.490;2022-08-01T12:03:07;96980;;;28.2;53
68628;BME280;55611;48.602;9.490;2022-08-01T12:05:37;96980;;;27.9;53
68628;BME280;55611;48.602;9.490;2022-08-01T12:08:08;96980;;;27.7;53
68628;BME280;55611;48.602;9.490;2022-08-01T12:10:38;96990;;;27.4;53
68628;BME280;55611;48.602;9.490;2022-08-01T12:13:09;96980;;;27.3;53.5
68628;BME280;55611;48.602;9.490;2022-08-01T12:15:39;96980;;;27.4;53.5
68628;BME280;55611;48.602;9.490;2022-08-01T12:18:10;96970;;;27.6;53.5
68628;BME280;55611;48.602;9.490;2022-08-01T12:20:42;96960;;;27.7;53.5
68628;BME280;55611;48.602;9.490;2022-08-01T12:23:12;96960;;;27.9;53.5
68628;BME280;55611;48.602;9.490;2022-08-01T12:25:42;96960;;;28.1;53.5
68628;BME280;55611;48.602;9.490;2022-08-01T12:28:12;96960;;;28.2;53.5
68628;BME280;55611;48.602;9.490;2022-08-01T12:30:42;96960;;;28.4;53
68628;BME280;55611;48.602;9.490;2022-08-01T12:33:16;96960;;;28.5;53
68628;BME280;55611;48.602;9.490;2022-08-01T12:35:43;96950;;;28.6;53
68628;BME280;55611;48.602;9.490;2022-08-01T12:38:15;96950;;;28.6;53
68628;BME280;55611;48.602;9.490;2022-08-01T12:40:45;96950;;;28.7;53
68628;BME280;55611;48.602;9.490;2022-08-01T12:43:16;96950;;;28.7;53
68628;BME280;55611;48.602;9.490;2022-08-01T12:45:46;96950;;;28.8;53
68628;BME280;55611;48.602;9.490;2022-08-01T12:48:16;96950;;;29;53
68628;BME280;55611;48.602;9.490;2022-08-01T12:50:47;96940;;;29.1;53
68628;BME280;55611;48.602;9.490;2022-08-01T12:53:17;96940;;;29.2;53
68628;BME280;55611;48.602;9.490;2022-08-01T12:55:49;96940;;;29.1;53
68628;BME280;55611;48.602;9.490;2022-08-01T12:58:19;96940;;;28.9;53
68628;BME280;55611;48.602;9.490;2022-08-01T13:00:49;96940;;;28.9;53
68628;BME280;55611;48.602;9.490;2022-08-01T13:03:19;96940;;;28.9;53
68628;BME280;55611;48.602;9.490;2022-08-01T13:05:52;96930;;;29;53
68628;BME280;55611;48.602;9.490;2022-08-01T13:08:35;96930;;;28.9;53
68628;BME280;55611;48.602;9.490;2022-08-01T13:10:53;96930;;;28.9;53
68628;BME280;55611;48.602;9.490;2022-08-01T13:13:21;96940;;;28.9;53
68628;BME280;55611;48.602;9.490;2022-08-01T13:15:52;96930;;;29;53
68628;BME280;55611;48.602;9.490;2022-08-01T13:18:24;96930;;;29.2;53
68628;BME280;55611;48.602;9.490;2022-08-01T13:21:09;96930;;;29.1;52.5
68628;BME280;55611;48.602;9.490;2022-08-01T13:23:23;96920;;;29.2;52.5
68628;BME280;55611;48.602;9.490;2022-08-01T13:25:54;96920;;;29.2;52.5
68628;BME280;55611;48.602;9.490;2022-08-01T13:28:26;96930;;;29.2;52.5
68628;BME280;55611;48.602;9.490;2022-08-01T13:31:03;96920;;;29.2;52.5
68628;BME280;55611;48.602;9.490;2022-08-01T13:33:26;96920;;;29.2;52.5
68628;BME280;55611;48.602;9.490;2022-08-01T13:35:56;96920;;;29.3;52.5
68628;BME280;55611;48.602;9.490;2022-08-01T13:43:27;96910;;;29.3;52.5
68628;BME280;55611;48.602;9.490;2022-08-01T13:45:58;96910;;;29.4;52.5
68628;BME280;55611;48.602;9.490;2022-08-01T13:48:28;96910;;;29.6;52.5
68628;BME280;55611;48.602;9.490;2022-08-01T13:50:59;96910;;;29.6;52
68628;BME280;55611;48.602;9.490;2022-08-01T13:53:29;96910;;;29.6;52
68628;BME280;55611;48.602;9.490;2022-08-01T13:56:00;96910;;;29.5;52
68628;BME280;55611;48.602;9.490;2022-08-01T13:58:30;96910;;;29.5;52
68628;BME280;55611;48.602;9.490;2022-08-01T14:01:01;96900;;;29.5;52
68628;BME280;55611;48.602;9.490;2022-08-01T14:03:31;96900;;;29.4;52
68628;BME280;55611;48.602;9.490;2022-08-01T14:06:02;96910;;;29.5;52
68628;BME280;55611;48.602;9.490;2022-08-01T14:08:32;96900;;;29.8;52
68628;BME280;55611;48.602;9.490;2022-08-01T14:11:03;96900;;;30;52
68628;BME280;55611;48.602;9.490;2022-08-01T14:13:33;96900;;;30.1;52
68628;BME280;55611;48.602;9.490;2022-08-01T14:16:05;96900;;;30.1;52
68628;BME280;55611;48.602;9.490;2022-08-01T14:18:34;96900;;;30.2;52
68628;BME280;55611;48.602;9.490;2022-08-01T14:21:05;96900;;;30.3;52
68628;BME280;55611;48.602;9.490;2022-08-01T14:23:35;96900;;;30.5;51.5
68628;BME280;55611;48.602;9.490;2022-08-01T14:26:06;96900;;;30.4;51.5
68628;BME280;55611;48.602;9.490;2022-08-01T14:28:37;96910;;;30.4;51.5
68628;BME280;55611;48.602;9.490;2022-08-01T14:31:07;96900;;;30.4;51.5
68628;BME280;55611;48.602;9.490;2022-08-01T14:33:37;96900;;;30.4;51.5
68628;BME280;55611;48.602;9.490;2022-08-01T14:36:08;96890;;;30.4;51.5
68628;BME280;55611;48.602;9.490;2022-08-01T14:38:38;96900;;;30.5;51.5
68628;BME280;55611;48.602;9.490;2022-08-01T14:41:09;96890;;;30.5;51.5